createdAt,value
2018-09-30T08:50:51.088Z,11.04
2018-09-30T08:53:22.608Z,11.11
2018-09-30T08:55:53.492Z,11.10
2018-09-30T08:58:24.409Z,11.23
2018-09-30T09:00:55.294Z,11.35
2018-09-30T09:03:26.509Z,11.41
2018-09-30T09:05:57.093Z,11.45
2018-09-30T09:08:27.740Z,11.51
2018-09-30T09:10:58.316Z,11.52
2018-09-30T09:13:28.906Z,11.53
2018-09-30T09:16:00.420Z,11.69
2018-09-30T09:18:31.027Z,11.81
2018-09-30T09:21:01.929Z,11.94
2018-09-30T09:28:56.604Z,12.17
2018-09-30T09:31:27.248Z,12.23
2018-09-30T09:33:57.941Z,12.32
2018-09-30T09:36:28.653Z,12.34
2018-09-30T09:38:59.300Z,12.29
2018-09-30T09:41:29.961Z,12.27
2018-09-30T09:44:00.501Z,12.23
2018-09-30T09:46:32.211Z,12.28
2018-09-30T09:49:03.037Z,12.25
2018-09-30T09:51:33.643Z,12.31
2018-09-30T09:54:04.238Z,12.26
2018-09-30T09:56:34.864Z,12.24
2018-09-30T09:59:05.497Z,12.21
2018-09-30T10:01:36.156Z,12.25
2018-09-30T10:04:06.768Z,12.21
2018-09-30T10:06:37.479Z,12.21
2018-09-30T10:09:08.123Z,12.15
2018-09-30T10:11:38.751Z,12.23
2018-09-30T10:14:09.323Z,12.17
2018-09-30T10:16:40.896Z,12.16
2018-09-30T10:19:11.481Z,12.16
2018-09-30T10:21:42.045Z,12.30
2018-09-30T10:24:12.579Z,12.32
2018-09-30T10:26:43.347Z,12.37
2018-09-30T10:29:14.074Z,12.37
2018-09-30T10:31:44.712Z,12.45
2018-09-30T10:34:15.319Z,12.54
2018-09-30T10:36:45.802Z,12.55
2018-09-30T10:39:16.536Z,12.62
2018-09-30T10:41:47.082Z,12.62
2018-09-30T10:44:17.727Z,12.67
2018-09-30T10:46:48.487Z,12.72
2018-09-30T10:49:19.054Z,12.77
2018-09-30T10:51:49.567Z,12.78
2018-09-30T10:54:20.333Z,12.78
2018-09-30T10:56:51.049Z,12.82
2018-09-30T10:59:21.596Z,12.81
2018-09-30T11:01:52.729Z,12.87
2018-09-30T11:04:23.478Z,12.92
2018-09-30T11:06:54.157Z,12.85
2018-09-30T11:09:24.886Z,12.84
2018-09-30T11:11:59.713Z,12.87
2018-09-30T11:14:31.639Z,12.95
2018-09-30T11:17:04.206Z,12.94
2018-09-30T11:19:34.835Z,12.96
2018-09-30T11:22:05.459Z,13.00
2018-09-30T11:24:35.948Z,13.00
2018-09-30T11:27:06.894Z,13.05
2018-09-30T11:29:37.505Z,13.02
2018-09-30T11:32:08.039Z,13.03
2018-09-30T11:34:38.588Z,12.99
2018-09-30T11:37:09.330Z,12.96
2018-09-30T11:39:39.990Z,12.97
2018-09-30T11:42:10.569Z,12.97
2018-09-30T11:44:41.171Z,12.93
2018-09-30T11:47:11.861Z,12.98
2018-09-30T11:49:42.594Z,13.04
2018-09-30T11:52:13.131Z,13.14
2018-09-30T11:54:43.741Z,13.07
2018-09-30T11:57:14.353Z,13.17
2018-09-30T11:59:44.880Z,13.21
2018-09-30T12:02:15.483Z,13.19
2018-09-30T12:04:46.128Z,13.38
2018-09-30T12:07:17.027Z,13.37
2018-09-30T12:09:47.669Z,13.38
2018-09-30T12:12:18.254Z,13.51
2018-09-30T12:14:48.789Z,13.48
2018-09-30T12:17:19.325Z,13.51
2018-09-30T12:19:49.882Z,13.50
2018-09-30T12:22:20.531Z,13.54
2018-09-30T12:24:51.208Z,13.56
2018-09-30T12:27:22.110Z,13.52
2018-09-30T12:29:52.820Z,13.60
2018-09-30T12:32:23.349Z,13.67
2018-09-30T12:34:53.924Z,13.77
2018-09-30T12:37:24.523Z,13.86
2018-09-30T12:39:55.031Z,13.91
2018-09-30T12:42:25.856Z,13.97
2018-09-30T12:44:56.464Z,14.06
2018-09-30T12:50:10.081Z,14.11
2018-09-30T12:52:40.685Z,14.17
2018-09-30T12:55:11.314Z,14.18
2018-09-30T12:57:41.907Z,14.17
2018-09-30T13:00:12.940Z,14.19
2018-09-30T13:02:43.580Z,14.13
2018-09-30T13:05:14.187Z,14.09
2018-09-30T13:07:44.980Z,14.11
2018-09-30T13:10:15.553Z,14.14
2018-09-30T13:12:46.100Z,14.22
2018-09-30T13:15:16.648Z,14.22
2018-09-30T13:17:47.255Z,14.26
2018-09-30T13:20:17.820Z,14.25
2018-09-30T13:22:48.401Z,14.20
2018-09-30T13:25:18.953Z,14.23
2018-09-30T13:27:50.520Z,14.28
2018-09-30T13:30:21.040Z,14.17
2018-09-30T13:32:51.615Z,14.21
2018-09-30T13:35:22.254Z,14.23
2018-09-30T13:37:52.835Z,14.26
2018-09-30T13:40:23.487Z,14.24
2018-09-30T13:42:54.112Z,14.20
2018-09-30T13:45:24.635Z,14.22
2018-09-30T13:47:55.247Z,14.29
2018-09-30T13:50:25.921Z,14.28
2018-09-30T13:52:56.456Z,14.30
2018-09-30T13:55:27.080Z,14.36
2018-09-30T13:57:57.773Z,14.40
2018-09-30T14:00:28.398Z,14.35
2018-09-30T14:02:59.154Z,14.32
2018-09-30T14:05:29.667Z,14.32
2018-09-30T14:08:00.531Z,14.33
2018-09-30T14:10:31.223Z,14.26
2018-09-30T14:13:01.781Z,14.27
2018-09-30T14:15:32.887Z,14.20
2018-09-30T14:18:03.513Z,14.19
2018-09-30T14:20:34.068Z,14.22
2018-09-30T14:23:04.748Z,14.21
2018-09-30T14:25:35.360Z,14.22
2018-09-30T14:28:06.019Z,14.21
2018-09-30T14:30:36.736Z,14.20
2018-09-30T14:33:07.523Z,14.12
2018-09-30T14:35:38.101Z,14.10
2018-09-30T14:38:08.749Z,14.07
2018-09-30T14:40:39.312Z,14.02
2018-09-30T14:43:09.844Z,14.03
2018-09-30T14:45:40.450Z,14.08
2018-09-30T14:48:11.073Z,14.14
2018-09-30T14:50:41.667Z,14.09
2018-09-30T14:53:12.338Z,14.03
2018-09-30T14:55:42.889Z,14.01
2018-09-30T14:58:13.465Z,13.95
2018-09-30T15:00:43.988Z,13.99
2018-09-30T15:03:14.463Z,13.96
2018-09-30T15:05:44.984Z,13.91
2018-09-30T15:08:16.115Z,13.85
2018-09-30T15:10:46.946Z,13.75
2018-09-30T15:13:17.601Z,13.72
2018-09-30T15:15:48.287Z,13.68
2018-09-30T15:18:19.207Z,13.73
2018-09-30T15:20:49.850Z,13.75
2018-09-30T15:23:20.504Z,13.68
2018-09-30T15:25:51.134Z,13.69
2018-09-30T15:28:21.932Z,13.67
2018-09-30T15:30:52.508Z,13.63
2018-09-30T15:33:23.080Z,13.62
2018-09-30T15:35:53.678Z,13.58
2018-09-30T15:38:24.304Z,13.54
2018-09-30T15:40:54.919Z,13.61
2018-09-30T15:43:25.583Z,13.64
2018-09-30T15:45:56.240Z,13.61
2018-09-30T15:48:27.162Z,13.58
2018-09-30T15:50:57.837Z,13.55
2018-09-30T15:53:28.643Z,13.52
2018-09-30T15:55:59.179Z,13.54
2018-09-30T15:58:29.743Z,13.50
2018-09-30T16:01:00.326Z,13.41
2018-09-30T16:03:30.991Z,13.42
2018-09-30T16:06:01.628Z,13.35
2018-09-30T16:08:32.195Z,13.30
2018-09-30T16:11:02.806Z,13.36
2018-09-30T16:13:33.350Z,13.31
2018-09-30T16:16:03.862Z,13.24
2018-09-30T16:18:34.396Z,13.23
2018-09-30T16:21:05.323Z,13.22
2018-09-30T16:23:36.113Z,13.22
2018-09-30T16:26:06.878Z,13.24
2018-09-30T16:28:38.747Z,13.21
2018-09-30T16:31:09.715Z,13.19
2018-09-30T16:33:40.259Z,13.18
2018-09-30T16:36:10.674Z,13.26
2018-09-30T16:38:41.325Z,13.21
2018-09-30T16:41:11.947Z,13.20
2018-09-30T16:43:42.590Z,13.19
2018-09-30T16:46:15.342Z,13.19
2018-09-30T16:48:46.727Z,13.19
2018-09-30T16:51:17.261Z,13.19
2018-09-30T16:53:47.820Z,13.23
2018-09-30T16:56:18.517Z,13.19
2018-09-30T16:58:49.329Z,13.18
2018-09-30T17:01:19.961Z,13.16
2018-09-30T17:03:50.602Z,13.20
2018-09-30T17:06:21.272Z,13.20
2018-09-30T17:08:52.355Z,13.14
2018-09-30T17:11:22.972Z,13.06
2018-09-30T17:13:53.562Z,13.07
2018-09-30T17:16:24.179Z,13.14
2018-09-30T17:18:54.951Z,13.15
2018-09-30T17:21:25.612Z,13.09
2018-09-30T17:23:56.279Z,13.12
2018-09-30T17:26:26.937Z,13.13
2018-09-30T17:28:57.843Z,13.18
2018-09-30T17:31:28.484Z,13.16
2018-09-30T17:33:59.296Z,13.15
2018-09-30T17:36:30.045Z,13.16
2018-09-30T17:39:00.994Z,13.14
2018-09-30T17:41:31.849Z,13.11
2018-09-30T17:44:02.736Z,13.13
2018-09-30T17:46:33.461Z,13.14
2018-09-30T17:49:04.599Z,13.11
2018-09-30T17:51:35.468Z,13.11
2018-09-30T17:54:06.192Z,13.10
2018-09-30T17:56:37.026Z,12.75
2018-09-30T17:59:07.812Z,13.06
2018-09-30T18:01:39.196Z,13.12
2018-09-30T18:04:09.866Z,13.06
2018-09-30T18:06:40.680Z,13.11
2018-09-30T18:09:12.443Z,13.11
2018-09-30T18:11:43.163Z,13.06
2018-09-30T18:14:13.841Z,13.11
2018-09-30T18:16:44.610Z,13.07
2018-09-30T18:19:15.340Z,13.12
2018-09-30T18:21:46.237Z,13.10
2018-09-30T18:24:17.016Z,13.13
2018-09-30T18:26:47.909Z,13.15
2018-09-30T18:29:18.855Z,13.15
2018-09-30T18:31:49.610Z,13.09
2018-09-30T18:34:20.329Z,13.12
2018-09-30T18:36:50.903Z,13.13
2018-09-30T18:39:21.567Z,13.10
2018-09-30T18:41:52.205Z,13.15
2018-09-30T18:44:23.112Z,13.14
2018-09-30T18:46:53.843Z,13.10
2018-09-30T18:49:24.979Z,13.16
2018-09-30T18:51:55.680Z,13.14
2018-09-30T18:54:26.381Z,13.11
2018-09-30T18:56:57.111Z,13.10
2018-09-30T18:59:27.882Z,13.04
2018-09-30T19:01:58.791Z,13.08
2018-09-30T19:04:29.483Z,13.08
2018-09-30T19:07:00.093Z,13.06
2018-09-30T19:09:30.899Z,13.03
2018-09-30T19:12:01.487Z,13.03
2018-09-30T19:14:32.073Z,13.09
2018-09-30T19:17:02.631Z,13.03
2018-09-30T19:19:33.313Z,13.08
2018-09-30T19:22:03.939Z,13.08
2018-09-30T19:24:34.639Z,13.13
2018-09-30T19:27:05.334Z,13.03
2018-09-30T19:29:35.944Z,13.02
2018-09-30T19:32:06.668Z,13.08
2018-09-30T19:34:37.268Z,13.05
2018-09-30T19:37:07.867Z,12.96
2018-09-30T19:39:38.488Z,13.03
2018-09-30T19:42:09.137Z,13.07
2018-09-30T19:44:39.710Z,13.10
2018-09-30T19:47:10.511Z,13.02
2018-09-30T19:49:41.602Z,13.01
2018-09-30T19:52:12.363Z,13.00
2018-09-30T19:54:42.981Z,13.01
2018-09-30T19:57:13.544Z,13.04
2018-09-30T19:59:44.149Z,13.08
2018-09-30T20:02:14.763Z,13.04
2018-09-30T20:04:45.448Z,13.06
2018-09-30T20:07:15.988Z,13.07
2018-09-30T20:09:47.659Z,13.08
2018-09-30T20:12:18.316Z,13.05
2018-09-30T20:14:48.908Z,13.06
2018-09-30T20:17:19.519Z,13.06
2018-09-30T20:19:50.055Z,13.10
2018-09-30T20:22:20.752Z,13.09
2018-09-30T20:24:51.389Z,13.08
2018-09-30T20:27:21.974Z,13.11
2018-09-30T20:29:52.650Z,13.04
2018-09-30T20:32:23.780Z,13.08
2018-09-30T20:34:54.420Z,13.12
2018-09-30T20:37:25.020Z,13.13
2018-09-30T20:39:55.654Z,13.07
2018-09-30T20:42:26.309Z,13.03
2018-09-30T20:44:56.829Z,12.95
2018-09-30T20:47:27.569Z,12.99
2018-09-30T20:49:58.395Z,13.02
2018-09-30T20:52:28.961Z,13.03
2018-09-30T20:54:59.682Z,13.03
2018-09-30T20:57:30.243Z,13.04
2018-09-30T21:00:00.856Z,13.07
2018-09-30T21:02:31.416Z,13.07
2018-09-30T21:07:12.328Z,13.00
2018-09-30T21:09:43.026Z,12.94
2018-09-30T21:12:13.902Z,12.97
2018-09-30T21:14:44.489Z,12.97
2018-09-30T21:17:15.216Z,13.06
2018-09-30T21:19:45.880Z,13.10
2018-09-30T21:22:16.512Z,13.05
2018-09-30T21:24:47.592Z,12.98
2018-09-30T21:27:18.278Z,12.93
2018-09-30T21:29:48.876Z,12.95
2018-09-30T21:32:19.478Z,12.88
2018-09-30T21:34:50.078Z,12.91
2018-09-30T21:37:20.748Z,12.89
2018-09-30T21:39:51.520Z,12.94
2018-09-30T21:42:22.259Z,13.03
2018-09-30T21:44:52.876Z,12.96
2018-09-30T21:47:23.380Z,12.89
2018-09-30T21:49:54.096Z,12.91
2018-09-30T21:52:24.937Z,12.90
2018-09-30T21:54:55.578Z,12.91
2018-09-30T21:57:26.116Z,12.94
2018-09-30T21:59:56.903Z,12.91
2018-09-30T22:02:27.571Z,12.95
2018-09-30T22:04:58.373Z,12.94
2018-09-30T22:07:29.790Z,12.85
2018-09-30T22:10:00.442Z,12.79
2018-09-30T22:12:31.272Z,12.78
2018-09-30T22:15:01.789Z,12.81
2018-09-30T22:17:32.347Z,12.79
2018-09-30T22:20:03.053Z,12.91
2018-09-30T22:22:33.696Z,12.87
2018-09-30T22:25:04.701Z,12.89
2018-09-30T22:27:35.249Z,12.86
2018-09-30T22:30:06.327Z,12.86
2018-09-30T22:32:37.847Z,12.81
2018-09-30T22:35:08.650Z,12.80
2018-09-30T22:37:39.273Z,12.74
2018-09-30T22:40:09.991Z,12.48
2018-09-30T22:42:40.541Z,12.74
2018-09-30T22:45:11.185Z,12.81
2018-09-30T22:47:41.857Z,12.86
2018-09-30T22:50:12.569Z,12.79
2018-09-30T22:52:43.169Z,12.89
2018-09-30T22:55:13.759Z,12.74
2018-09-30T22:57:44.412Z,12.76
2018-09-30T23:00:15.275Z,12.72
2018-09-30T23:02:46.020Z,12.70
2018-09-30T23:05:16.540Z,12.79
2018-09-30T23:07:47.251Z,12.76
2018-09-30T23:10:17.931Z,12.76
2018-09-30T23:12:48.712Z,12.78
2018-09-30T23:15:19.341Z,12.79
2018-09-30T23:17:50.039Z,12.79
2018-09-30T23:20:20.635Z,12.72
2018-09-30T23:22:51.292Z,12.79
2018-09-30T23:25:21.970Z,12.72
2018-09-30T23:27:52.633Z,12.74
2018-09-30T23:30:23.263Z,12.78
2018-09-30T23:32:54.225Z,12.75
2018-09-30T23:35:24.770Z,12.72
2018-09-30T23:37:55.380Z,12.82
2018-09-30T23:40:25.925Z,12.85
2018-09-30T23:42:56.440Z,12.86
2018-09-30T23:45:27.105Z,12.94
2018-09-30T23:47:57.707Z,12.92
2018-09-30T23:50:28.298Z,12.89
2018-09-30T23:52:58.862Z,12.97
2018-09-30T23:55:29.440Z,12.91
2018-09-30T23:58:07.611Z,12.90
